Time;durP1;ratioP1;P1;durP2;ratioP2;P2;SDS_P1;SDS_P2;PMS_P1;PMS_P2;Temp;Humidity;BMP_temperature;BMP_pressure;BME280_temperature;BME280_humidity;BME280_pressure;Samples;Min_cycle;Max_cycle;Signal;HPM_P1;HPM_P2
2023/05/11 00:01:09;;;;;;;15.07;11.27;;;11.70;99.90;;;;;;5039488;28;20220;-82
2023/05/11 00:03:35;;;;;;;15.03;10.97;;;11.80;99.90;;;;;;5040041;28;20229;-83
2023/05/11 00:06:03;;;;;;;13.77;11.00;;;11.70;99.90;;;;;;5020974;28;20241;-83
2023/05/11 00:08:30;;;;;;;14.50;11.00;;;11.70;99.90;;;;;;5038631;28;20225;-82
2023/05/11 00:10:59;;;;;;;17.20;12.00;;;11.70;99.90;;;;;;5042100;28;20562;-82
2023/05/11 00:13:27;;;;;;;15.10;11.70;;;11.70;99.90;;;;;;5041039;28;20290;-82
2023/05/11 00:15:54;;;;;;;17.23;12.33;;;11.70;99.90;;;;;;5039633;28;20238;-83
2023/05/11 00:18:21;;;;;;;14.70;11.07;;;11.80;99.90;;;;;;5042386;28;20224;-84
2023/05/11 00:20:48;;;;;;;14.77;11.17;;;11.70;99.90;;;;;;5040900;28;20324;-83
2023/05/11 00:23:15;;;;;;;15.67;12.10;;;11.80;99.90;;;;;;5038239;28;20228;-82
2023/05/11 00:25:41;;;;;;;16.13;12.10;;;11.80;99.90;;;;;;5022240;28;20231;-82
2023/05/11 00:28:09;;;;;;;16.20;11.33;;;11.80;99.90;;;;;;5038601;28;20220;-82
2023/05/11 00:30:37;;;;;;;14.40;11.43;;;11.80;99.90;;;;;;5038857;28;20855;-82
2023/05/11 00:33:04;;;;;;;14.90;11.90;;;11.90;99.90;;;;;;5037893;28;20247;-82
2023/05/11 00:35:31;;;;;;;15.00;11.90;;;11.90;99.90;;;;;;5040974;28;20678;-81
2023/05/11 00:37:58;;;;;;;15.13;11.57;;;11.90;99.90;;;;;;5042868;28;20237;-82
2023/05/11 00:40:25;;;;;;;16.23;12.20;;;11.90;99.90;;;;;;5038000;28;20312;-82
2023/05/11 00:42:52;;;;;;;14.20;11.57;;;12.00;99.90;;;;;;5023450;28;20747;-84
2023/05/11 00:45:20;;;;;;;14.63;11.87;;;12.00;99.90;;;;;;5042497;28;20775;-82
2023/05/11 00:47:48;;;;;;;15.20;11.93;;;12.00;99.90;;;;;;5042457;28;20311;-81
2023/05/11 00:50:15;;;;;;;14.77;11.10;;;12.00;99.90;;;;;;5039562;28;20733;-81
2023/05/11 00:52:42;;;;;;;13.40;10.60;;;12.00;99.90;;;;;;5043343;28;20230;-80
2023/05/11 00:55:11;;;;;;;15.77;11.47;;;12.00;99.90;;;;;;5040060;28;20344;-80
2023/05/11 00:57:38;;;;;;;14.70;10.90;;;12.00;99.90;;;;;;5045652;28;20239;-82
2023/05/11 01:00:06;;;;;;;14.57;11.50;;;12.00;99.90;;;;;;5037236;28;20700;-81
2023/05/11 01:02:33;;;;;;;12.23;10.03;;;12.00;99.90;;;;;;5024615;28;20223;-81
2023/05/11 01:05:01;;;;;;;13.07;10.70;;;12.00;99.90;;;;;;5044407;28;20222;-82
2023/05/11 01:07:35;;;;;;;12.50;10.10;;;12.00;99.90;;;;;;5037695;28;20223;-82
2023/05/11 01:10:13;;;;;;;13.57;10.90;;;12.00;99.90;;;;;;5043467;28;20541;-82
2023/05/11 01:12:47;;;;;;;13.13;9.30;;;12.00;99.90;;;;;;5046823;28;20923;-82
2023/05/11 01:15:19;;;;;;;12.07;9.97;;;12.00;99.90;;;;;;5035167;28;20296;-83
2023/05/11 01:17:53;;;;;;;10.13;8.90;;;12.00;99.90;;;;;;5045818;28;20325;-83
2023/05/11 01:20:26;;;;;;;9.90;8.17;;;12.00;99.90;;;;;;5046038;28;20222;-82
2023/05/11 01:23:10;;;;;;;10.37;7.67;;;12.00;99.90;;;;;;5027016;28;20229;-82
2023/05/11 01:25:56;;;;;;;8.67;7.50;;;12.00;99.90;;;;;;5045182;28;20319;-82
2023/05/11 01:28:42;;;;;;;9.50;7.70;;;12.00;99.90;;;;;;5039464;28;20222;-83
2023/05/11 01:31:11;;;;;;;8.77;7.57;;;12.00;99.90;;;;;;5019131;28;20274;-83
2023/05/11 01:33:43;;;;;;;8.47;7.60;;;12.00;99.90;;;;;;5042455;28;20224;-83
2023/05/11 01:36:12;;;;;;;10.03;7.77;;;11.90;99.90;;;;;;5042670;28;20238;-83
2023/05/11 01:38:43;;;;;;;9.40;7.63;;;11.90;99.90;;;;;;5043538;28;20294;-82
2023/05/11 01:41:14;;;;;;;10.27;8.27;;;11.90;99.90;;;;;;5036546;28;20229;-82
2023/05/11 01:43:42;;;;;;;8.63;7.30;;;11.90;99.90;;;;;;5025649;28;20234;-82
2023/05/11 01:46:12;;;;;;;8.57;6.87;;;11.80;99.90;;;;;;5043692;28;20222;-83
2023/05/11 01:48:42;;;;;;;9.33;7.90;;;11.80;99.90;;;;;;5045178;28;20525;-83
2023/05/11 01:51:09;;;;;;;10.03;7.87;;;11.80;99.90;;;;;;5031783;28;20225;-83
2023/05/11 01:53:39;;;;;;;10.10;8.30;;;11.80;99.90;;;;;;5021718;28;20312;-83
2023/05/11 01:56:07;;;;;;;9.80;8.00;;;11.80;99.90;;;;;;5046106;28;20230;-83
2023/05/11 01:58:35;;;;;;;9.50;7.37;;;11.80;99.90;;;;;;5038939;28;20317;-82
2023/05/11 02:01:05;;;;;;;8.90;7.60;;;11.80;99.90;;;;;;5044685;28;20608;-82
2023/05/11 02:03:36;;;;;;;10.43;8.70;;;11.80;99.90;;;;;;5038739;28;20230;-83
2023/05/11 02:06:05;;;;;;;9.27;7.50;;;11.80;99.90;;;;;;5039343;28;20227;-82
2023/05/11 02:08:33;;;;;;;11.83;8.03;;;11.80;99.90;;;;;;5040147;28;20214;-82
2023/05/11 02:11:02;;;;;;;9.67;7.87;;;11.90;99.90;;;;;;5041032;28;20248;-82
2023/05/11 02:13:30;;;;;;;10.23;7.90;;;11.80;99.90;;;;;;5021999;28;20312;-82
2023/05/11 02:15:59;;;;;;;9.67;8.60;;;11.80;99.90;;;;;;5040956;28;20232;-83
2023/05/11 02:18:27;;;;;;;9.80;7.67;;;11.80;99.90;;;;;;5034931;28;20224;-83
2023/05/11 02:20:59;;;;;;;9.73;7.80;;;11.80;99.90;;;;;;5047241;28;20240;-83
2023/05/11 02:23:27;;;;;;;11.37;8.87;;;11.80;99.90;;;;;;5023595;28;20237;-83
2023/05/11 02:25:56;;;;;;;10.57;8.00;;;11.80;99.90;;;;;;5025984;28;20220;-82
2023/05/11 02:28:23;;;;;;;10.43;8.13;;;11.80;99.90;;;;;;5023974;28;20278;-82
2023/05/11 02:30:54;;;;;;;9.70;7.67;;;11.80;99.90;;;;;;5044223;28;20221;-83
2023/05/11 02:33:27;;;;;;;11.00;8.23;;;11.80;99.90;;;;;;5024918;28;20212;-82
2023/05/11 02:35:58;;;;;;;10.70;8.33;;;11.80;99.90;;;;;;5026696;28;20228;-83
2023/05/11 02:38:33;;;;;;;10.00;8.03;;;11.70;99.90;;;;;;5022832;28;20244;-83
2023/05/11 02:41:04;;;;;;;10.13;8.30;;;11.70;99.90;;;;;;5040993;28;20232;-83
2023/05/11 02:43:35;;;;;;;10.10;8.43;;;11.70;99.90;;;;;;5023126;28;20641;-83
2023/05/11 02:46:04;;;;;;;10.03;7.87;;;11.70;99.90;;;;;;5040287;28;21899;-83
2023/05/11 02:48:41;;;;;;;10.87;7.70;;;11.60;99.90;;;;;;5024743;28;20225;-84
2023/05/11 02:51:16;;;;;;;9.80;7.83;;;11.60;99.90;;;;;;5022096;28;20299;-84
2023/05/11 02:53:49;;;;;;;11.70;8.83;;;11.60;99.90;;;;;;5018509;28;20771;-83
2023/05/11 02:56:17;;;;;;;11.27;8.20;;;11.60;99.90;;;;;;5038264;28;20230;-83
2023/05/11 02:58:44;;;;;;;9.57;7.60;;;11.60;99.90;;;;;;5031590;28;20231;-84
2023/05/11 03:01:22;;;;;;;10.73;8.30;;;11.60;99.90;;;;;;5024927;28;20218;-83
2023/05/11 03:03:48;;;;;;;10.30;7.57;;;11.50;99.90;;;;;;5040824;28;20714;-83
2023/05/11 03:06:17;;;;;;;11.50;8.17;;;11.50;99.90;;;;;;5041617;28;20254;-84
2023/05/11 03:08:44;;;;;;;11.30;8.60;;;11.50;99.90;;;;;;5041303;28;20234;-82
2023/05/11 03:11:13;;;;;;;11.47;8.43;;;11.50;99.90;;;;;;5024277;28;20226;-82
2023/05/11 03:13:42;;;;;;;9.97;8.40;;;11.50;99.90;;;;;;5036493;28;21023;-84
2023/05/11 03:16:11;;;;;;;11.00;9.20;;;11.60;99.90;;;;;;5023530;28;20946;-83
2023/05/11 03:18:38;;;;;;;11.67;9.27;;;11.60;99.90;;;;;;5039876;28;20228;-83
2023/05/11 03:21:06;;;;;;;12.60;9.20;;;11.50;99.90;;;;;;5043792;28;20220;-84
2023/05/11 03:23:35;;;;;;;11.30;8.77;;;11.60;99.90;;;;;;5043378;28;20227;-82
2023/05/11 03:26:03;;;;;;;12.00;8.50;;;11.60;99.90;;;;;;5041903;28;20616;-84
2023/05/11 03:28:31;;;;;;;11.83;9.17;;;11.60;99.90;;;;;;5030578;28;20239;-82
2023/05/11 03:31:02;;;;;;;12.10;9.67;;;11.50;99.90;;;;;;5040548;28;20224;-83
2023/05/11 03:33:32;;;;;;;11.90;9.50;;;11.50;99.90;;;;;;5041819;28;20810;-83
2023/05/11 03:36:02;;;;;;;12.00;9.77;;;11.50;99.90;;;;;;5024665;28;20228;-84
2023/05/11 03:38:30;;;;;;;12.73;9.10;;;11.50;99.90;;;;;;5024707;28;20216;-84
2023/05/11 03:41:01;;;;;;;14.07;10.17;;;11.50;99.90;;;;;;5028371;28;20224;-84
2023/05/11 03:43:31;;;;;;;14.03;10.23;;;11.50;99.90;;;;;;5042741;28;20224;-84
2023/05/11 03:45:59;;;;;;;11.70;9.27;;;11.50;99.90;;;;;;5042971;28;20262;-84
2023/05/11 03:48:27;;;;;;;13.50;9.93;;;11.50;99.90;;;;;;5038658;28;20279;-84
2023/05/11 03:50:54;;;;;;;13.13;9.33;;;11.50;99.90;;;;;;5042648;28;20298;-84
2023/05/11 03:53:21;;;;;;;13.00;10.00;;;11.50;99.90;;;;;;5041058;28;20274;-82
2023/05/11 03:55:48;;;;;;;13.83;9.37;;;11.50;99.90;;;;;;5034494;28;20230;-82
2023/05/11 03:58:16;;;;;;;12.33;9.30;;;11.50;99.90;;;;;;5039604;28;20314;-83
2023/05/11 04:00:43;;;;;;;14.50;10.27;;;11.50;99.90;;;;;;5040468;28;20333;-83
2023/05/11 04:03:11;;;;;;;12.13;9.27;;;11.50;99.90;;;;;;5022239;28;20220;-82
2023/05/11 04:05:39;;;;;;;12.87;9.27;;;11.50;99.90;;;;;;5042941;28;20231;-83
2023/05/11 04:08:10;;;;;;;12.63;9.27;;;11.40;99.90;;;;;;5039592;28;20227;-83
2023/05/11 04:10:38;;;;;;;13.70;9.90;;;11.40;99.90;;;;;;5041680;28;20300;-83
2023/05/11 04:13:05;;;;;;;13.50;10.20;;;11.50;99.90;;;;;;5025784;28;20225;-83
2023/05/11 04:15:34;;;;;;;14.03;9.67;;;11.40;99.90;;;;;;5036933;28;20239;-83
2023/05/11 04:18:01;;;;;;;15.43;10.60;;;11.40;99.90;;;;;;5016918;28;20220;-82
2023/05/11 04:20:27;;;;;;;13.63;10.10;;;11.40;99.90;;;;;;5037225;28;20982;-83
2023/05/11 04:22:54;;;;;;;12.33;9.37;;;11.40;99.90;;;;;;5024040;28;20276;-83
2023/05/11 04:25:21;;;;;;;14.07;9.67;;;11.40;99.90;;;;;;5038106;28;20534;-81
2023/05/11 04:27:48;;;;;;;12.77;8.60;;;11.40;99.90;;;;;;5040675;28;20315;-82
2023/05/11 04:30:14;;;;;;;12.00;8.27;;;11.40;99.90;;;;;;5038966;28;20224;-81
2023/05/11 04:32:42;;;;;;;15.20;9.77;;;11.40;99.90;;;;;;5029017;28;20220;-80
2023/05/11 04:35:10;;;;;;;12.67;8.67;;;11.40;99.90;;;;;;5021696;28;20231;-81
2023/05/11 04:37:38;;;;;;;13.23;9.53;;;11.40;99.90;;;;;;5045151;28;20289;-80
2023/05/11 04:40:08;;;;;;;29.57;9.70;;;11.40;99.90;;;;;;5025316;28;20224;-81
2023/05/11 04:42:40;;;;;;;11.57;8.47;;;11.40;99.90;;;;;;5030540;28;20227;-81
2023/05/11 04:45:11;;;;;;;16.80;11.97;;;11.50;99.90;;;;;;5044101;28;20239;-82
2023/05/11 04:47:37;;;;;;;14.57;10.27;;;11.50;99.90;;;;;;5041692;28;20221;-82
2023/05/11 04:50:07;;;;;;;15.60;10.07;;;11.50;99.90;;;;;;5023766;28;20227;-82
2023/05/11 04:52:35;;;;;;;15.87;9.87;;;11.60;99.90;;;;;;5040182;28;20218;-81
2023/05/11 04:55:03;;;;;;;13.30;9.50;;;11.60;99.90;;;;;;5028619;28;20231;-82
2023/05/11 04:57:30;;;;;;;18.60;12.93;;;11.70;99.90;;;;;;5027209;28;20642;-81
2023/05/11 04:59:57;;;;;;;14.60;9.87;;;11.70;99.90;;;;;;5043648;28;20301;-81
2023/05/11 05:02:24;;;;;;;13.33;9.10;;;11.70;99.90;;;;;;5027172;28;20319;-83
2023/05/11 05:04:51;;;;;;;15.47;10.17;;;11.80;99.90;;;;;;5041417;28;20224;-83
2023/05/11 05:07:19;;;;;;;16.53;10.07;;;11.80;99.90;;;;;;5039442;28;20221;-82
2023/05/11 05:09:46;;;;;;;17.87;10.20;;;11.90;99.90;;;;;;5026214;28;20269;-82
2023/05/11 05:12:14;;;;;;;17.37;10.20;;;12.00;99.90;;;;;;5042653;28;20225;-82
2023/05/11 05:14:41;;;;;;;17.93;11.67;;;12.00;99.90;;;;;;5042211;28;20658;-83
2023/05/11 05:17:08;;;;;;;17.40;11.37;;;12.10;99.90;;;;;;5031117;28;20233;-83
2023/05/11 05:19:35;;;;;;;21.00;11.97;;;12.10;99.90;;;;;;5028572;28;20226;-82
2023/05/11 05:22:02;;;;;;;18.57;11.93;;;12.20;99.90;;;;;;5047113;28;20224;-82
2023/05/11 05:24:32;;;;;;;19.77;11.83;;;12.20;99.90;;;;;;5044051;28;20241;-83
2023/05/11 05:26:58;;;;;;;17.93;10.90;;;12.20;99.90;;;;;;5051872;28;20224;-83
2023/05/11 05:29:26;;;;;;;18.50;12.00;;;12.30;99.90;;;;;;5044833;28;20234;-82
2023/05/11 05:31:53;;;;;;;21.47;12.63;;;12.30;99.90;;;;;;5049759;28;20227;-82
2023/05/11 05:34:20;;;;;;;18.70;11.23;;;12.30;99.90;;;;;;5044648;28;20321;-82
2023/05/11 05:36:47;;;;;;;19.10;11.27;;;12.30;99.90;;;;;;5027693;28;20218;-83
2023/05/11 05:39:14;;;;;;;18.10;10.50;;;12.40;99.90;;;;;;5043780;28;20232;-82
2023/05/11 05:41:43;;;;;;;17.90;11.17;;;12.50;99.90;;;;;;5053195;28;20226;-82
2023/05/11 05:44:10;;;;;;;22.03;12.23;;;12.50;99.90;;;;;;5044070;28;20227;-82
2023/05/11 05:46:38;;;;;;;22.47;12.10;;;12.50;99.90;;;;;;5028505;28;20278;-82
2023/05/11 05:49:05;;;;;;;19.70;12.67;;;12.50;99.90;;;;;;5027254;28;20686;-82
2023/05/11 05:51:32;;;;;;;22.93;12.80;;;12.50;99.90;;;;;;5030983;28;20285;-82
2023/05/11 05:53:59;;;;;;;25.33;13.97;;;12.50;99.90;;;;;;5035233;28;20591;-82
2023/05/11 05:56:26;;;;;;;24.77;12.83;;;12.50;99.90;;;;;;5028223;28;20237;-82
2023/05/11 05:58:54;;;;;;;23.10;13.53;;;12.50;99.90;;;;;;5036189;28;20223;-82
2023/05/11 06:01:21;;;;;;;30.53;15.90;;;12.50;99.90;;;;;;5012885;28;20667;-82
2023/05/11 06:03:50;;;;;;;25.93;15.03;;;12.50;99.90;;;;;;5036876;28;20225;-82
2023/05/11 06:06:17;;;;;;;27.23;15.60;;;12.60;99.90;;;;;;5029837;28;20222;-83
2023/05/11 06:08:44;;;;;;;27.47;14.60;;;12.60;99.90;;;;;;5032128;28;20681;-83
2023/05/11 06:11:11;;;;;;;28.77;15.53;;;12.60;99.90;;;;;;5027392;28;20995;-82
2023/05/11 06:13:38;;;;;;;27.13;15.40;;;12.60;99.90;;;;;;5049029;28;20227;-81
2023/05/11 06:16:06;;;;;;;25.60;15.17;;;12.60;99.90;;;;;;5031214;28;20233;-81
2023/05/11 06:18:34;;;;;;;27.07;15.70;;;12.60;99.90;;;;;;5026453;28;20250;-81
2023/05/11 06:21:02;;;;;;;27.47;15.40;;;12.60;99.90;;;;;;5033173;28;20270;-81
2023/05/11 06:23:31;;;;;;;27.80;15.80;;;12.70;99.90;;;;;;5048056;28;20254;-81
2023/05/11 06:25:57;;;;;;;28.10;16.20;;;12.70;99.90;;;;;;5024383;28;20318;-81
2023/05/11 06:28:26;;;;;;;29.27;15.37;;;12.70;99.90;;;;;;5042090;28;20710;-81
2023/05/11 06:30:58;;;;;;;32.30;15.90;;;12.70;99.90;;;;;;5027509;28;20223;-80
2023/05/11 06:33:27;;;;;;;29.37;15.30;;;12.70;99.90;;;;;;5038442;28;20326;-80
2023/05/11 06:35:54;;;;;;;30.20;16.03;;;12.70;99.90;;;;;;5041298;28;20297;-81
2023/05/11 06:38:21;;;;;;;30.43;15.67;;;12.80;99.90;;;;;;5030539;28;20303;-80
2023/05/11 06:40:51;;;;;;;27.00;13.87;;;12.80;99.90;;;;;;5046000;28;20608;-82
2023/05/11 06:43:18;;;;;;;25.80;13.80;;;12.90;99.90;;;;;;5044212;28;20317;-82
2023/05/11 06:45:47;;;;;;;23.73;12.73;;;12.90;99.90;;;;;;5030649;28;20233;-82
2023/05/11 06:48:15;;;;;;;22.90;13.53;;;13.00;99.90;;;;;;5044887;28;20221;-82
2023/05/11 06:50:43;;;;;;;25.37;14.17;;;13.00;99.90;;;;;;5025651;28;20233;-82
2023/05/11 06:53:12;;;;;;;27.77;14.80;;;13.10;99.90;;;;;;5026767;28;20224;-82
2023/05/11 06:55:39;;;;;;;25.43;14.63;;;13.10;99.90;;;;;;5047578;28;20718;-82
2023/05/11 06:58:05;;;;;;;29.40;15.17;;;13.10;99.90;;;;;;5033620;28;20233;-83
2023/05/11 07:00:32;;;;;;;31.63;15.13;;;13.20;99.90;;;;;;5024752;28;20222;-82
2023/05/11 07:02:59;;;;;;;28.17;15.23;;;13.30;99.90;;;;;;5042496;28;20587;-82
2023/05/11 07:05:26;;;;;;;27.03;15.03;;;13.30;99.90;;;;;;5044228;28;20231;-82
2023/05/11 07:07:54;;;;;;;28.37;15.00;;;13.40;99.90;;;;;;5048926;28;20658;-82
2023/05/11 07:10:21;;;;;;;26.50;15.27;;;13.40;99.90;;;;;;5035525;28;20235;-85
2023/05/11 07:12:48;;;;;;;25.87;14.77;;;13.40;99.90;;;;;;5033625;28;20221;-84
2023/05/11 07:15:14;;;;;;;30.23;15.23;;;13.40;99.90;;;;;;5045274;28;20238;-84
2023/05/11 07:17:41;;;;;;;27.43;15.57;;;13.40;99.90;;;;;;5047124;28;20336;-83
2023/05/11 07:20:09;;;;;;;24.37;13.87;;;13.40;99.90;;;;;;5040945;28;20226;-83
2023/05/11 07:22:35;;;;;;;24.00;13.70;;;13.40;99.90;;;;;;5045131;28;20683;-83
2023/05/11 07:25:04;;;;;;;26.30;14.10;;;13.40;99.90;;;;;;5044394;28;20236;-83
2023/05/11 07:27:31;;;;;;;28.17;14.97;;;13.40;99.90;;;;;;5029895;28;20234;-83
2023/05/11 07:29:58;;;;;;;29.50;16.27;;;13.40;99.90;;;;;;5045849;28;20222;-82
2023/05/11 07:32:24;;;;;;;33.77;19.73;;;13.30;99.90;;;;;;5029645;28;20238;-82
2023/05/11 07:34:51;;;;;;;28.73;15.37;;;13.30;99.90;;;;;;5042428;28;20231;-82
2023/05/11 07:37:18;;;;;;;29.00;15.80;;;13.30;99.90;;;;;;5025816;28;20256;-81
2023/05/11 07:39:44;;;;;;;28.40;15.93;;;13.30;99.90;;;;;;5049319;28;20234;-81
2023/05/11 07:42:13;;;;;;;28.40;15.30;;;13.30;99.90;;;;;;5049141;28;20247;-81
2023/05/11 07:44:39;;;;;;;27.90;15.90;;;13.40;99.90;;;;;;5039526;28;20230;-80
2023/05/11 07:47:06;;;;;;;27.13;16.00;;;13.30;99.90;;;;;;5028425;28;20242;-81
2023/05/11 07:49:32;;;;;;;27.80;15.83;;;13.40;99.90;;;;;;5045894;28;20314;-81
2023/05/11 07:51:59;;;;;;;29.03;16.57;;;13.40;99.90;;;;;;5020384;28;20221;-81
2023/05/11 07:54:26;;;;;;;26.47;14.40;;;13.40;99.90;;;;;;5032297;28;20231;-81
2023/05/11 07:56:52;;;;;;;27.03;14.73;;;13.50;99.90;;;;;;5026970;28;20269;-80
2023/05/11 07:59:20;;;;;;;25.97;14.70;;;13.50;99.90;;;;;;5048173;28;20881;-79
2023/05/11 08:01:47;;;;;;;27.47;15.50;;;13.50;99.90;;;;;;5026364;28;20227;-80
2023/05/11 08:04:14;;;;;;;26.70;14.73;;;13.50;99.90;;;;;;5057796;28;20224;-80
2023/05/11 08:06:40;;;;;;;27.30;15.40;;;13.60;99.90;;;;;;5058252;28;20254;-80
2023/05/11 08:09:07;;;;;;;28.87;15.50;;;13.60;99.90;;;;;;5050172;28;20229;-80
2023/05/11 08:11:34;;;;;;;23.50;13.70;;;13.60;99.90;;;;;;5047782;28;20277;-80
2023/05/11 08:14:01;;;;;;;26.83;14.03;;;13.60;99.90;;;;;;5047074;28;20270;-80
2023/05/11 08:16:28;;;;;;;25.57;14.37;;;13.70;99.90;;;;;;5050522;28;20237;-79
2023/05/11 08:18:55;;;;;;;24.20;13.47;;;13.70;99.90;;;;;;5052042;28;20232;-80
2023/05/11 08:21:22;;;;;;;20.67;12.87;;;13.80;99.90;;;;;;5049778;28;20771;-80
2023/05/11 08:23:49;;;;;;;19.83;11.80;;;13.80;99.90;;;;;;5050923;28;20787;-80
2023/05/11 08:26:15;;;;;;;23.60;13.37;;;13.80;99.90;;;;;;5032162;28;20244;-80
2023/05/11 08:28:42;;;;;;;21.47;13.07;;;13.70;99.90;;;;;;5049494;28;20270;-80
2023/05/11 08:31:09;;;;;;;25.83;13.57;;;13.70;99.90;;;;;;5029587;28;20319;-80
2023/05/11 08:33:37;;;;;;;25.33;14.43;;;13.70;99.90;;;;;;5033015;28;20231;-80
2023/05/11 08:36:04;;;;;;;21.23;13.27;;;13.60;99.90;;;;;;5049746;28;20234;-81
2023/05/11 08:38:31;;;;;;;22.60;13.43;;;13.60;99.90;;;;;;5067412;28;20273;-81
2023/05/11 08:40:58;;;;;;;20.83;12.57;;;13.60;99.90;;;;;;5042410;28;20227;-82
2023/05/11 08:43:26;;;;;;;23.30;13.37;;;13.50;99.90;;;;;;5039814;28;20757;-82
2023/05/11 08:46:00;;;;;;;21.63;11.80;;;13.60;99.90;;;;;;5053884;28;20679;-80
2023/05/11 08:48:27;;;;;;;21.80;13.77;;;13.60;99.90;;;;;;5047935;28;20251;-83
2023/05/11 08:50:55;;;;;;;21.00;13.47;;;13.50;99.90;;;;;;5036403;28;20231;-81
2023/05/11 08:53:23;;;;;;;19.37;12.07;;;13.50;99.90;;;;;;5048278;28;20647;-82
2023/05/11 08:55:50;;;;;;;23.63;13.77;;;13.40;99.90;;;;;;5030208;28;20239;-81
2023/05/11 08:58:20;;;;;;;21.33;12.70;;;13.40;99.90;;;;;;5034937;28;20698;-82
2023/05/11 09:00:49;;;;;;;22.87;13.47;;;13.40;99.90;;;;;;5050123;28;20226;-82
2023/05/11 09:03:17;;;;;;;24.77;13.20;;;13.40;99.90;;;;;;5057106;28;20238;-83
2023/05/11 09:05:45;;;;;;;23.93;14.20;;;13.40;99.90;;;;;;5070018;28;20294;-82
2023/05/11 09:08:14;;;;;;;23.03;14.57;;;13.30;99.90;;;;;;5037773;28;20223;-82
2023/05/11 09:10:42;;;;;;;23.70;16.23;;;13.30;99.90;;;;;;5043921;28;20223;-83
2023/05/11 09:13:09;;;;;;;22.80;13.40;;;13.40;99.90;;;;;;5034041;28;20230;-83
2023/05/11 09:15:35;;;;;;;22.87;15.57;;;13.30;99.90;;;;;;5044831;28;20222;-83
2023/05/11 09:18:03;;;;;;;19.77;13.13;;;13.40;99.90;;;;;;5031917;28;20234;-83
2023/05/11 09:20:31;;;;;;;19.10;11.73;;;13.40;99.90;;;;;;5050496;28;20296;-82
2023/05/11 09:22:58;;;;;;;22.23;11.97;;;13.50;99.90;;;;;;5050182;28;20231;-82
2023/05/11 09:25:29;;;;;;;18.10;12.50;;;13.60;99.90;;;;;;5050670;28;20227;-80
2023/05/11 09:27:59;;;;;;;18.10;10.30;;;13.70;99.90;;;;;;5051040;28;20234;-82
2023/05/11 09:30:25;;;;;;;16.60;9.63;;;13.80;99.90;;;;;;5046600;28;20267;-81
2023/05/11 09:32:54;;;;;;;15.10;9.37;;;13.90;99.90;;;;;;5033033;28;20231;-83
2023/05/11 09:35:23;;;;;;;74.87;45.23;;;14.00;99.90;;;;;;5033165;28;20223;-82
2023/05/11 09:38:02;;;;;;;16.53;10.77;;;14.10;99.90;;;;;;5050423;28;20226;-83
2023/05/11 09:40:32;;;;;;;14.47;8.43;;;14.10;99.90;;;;;;5050528;28;20225;-82
2023/05/11 09:42:59;;;;;;;13.33;8.17;;;14.20;99.90;;;;;;5049099;28;20646;-82
2023/05/11 09:45:36;;;;;;;14.10;9.23;;;14.30;99.90;;;;;;5048370;28;20246;-81
2023/05/11 09:48:03;;;;;;;10.43;7.87;;;14.30;99.90;;;;;;5049866;28;20700;-81
2023/05/11 09:50:32;;;;;;;12.87;8.07;;;14.30;99.90;;;;;;5037366;28;20253;-81
2023/05/11 09:52:59;;;;;;;11.97;8.73;;;14.30;99.90;;;;;;5038183;28;20233;-82
2023/05/11 09:55:26;;;;;;;12.93;7.63;;;14.30;99.90;;;;;;5050939;28;20222;-82
2023/05/11 09:57:56;;;;;;;10.43;7.10;;;14.30;99.90;;;;;;5049553;28;20229;-82
2023/05/11 10:00:24;;;;;;;11.40;7.63;;;14.30;99.90;;;;;;5030361;28;20301;-80
2023/05/11 10:03:00;;;;;;;10.17;6.97;;;14.40;99.90;;;;;;5038884;28;20222;-81
2023/05/11 10:05:26;;;;;;;11.43;7.50;;;14.40;99.90;;;;;;5031110;28;20650;-82
2023/05/11 10:07:57;;;;;;;10.70;6.67;;;14.50;99.90;;;;;;5040336;28;20222;-81
2023/05/11 10:10:26;;;;;;;10.50;7.00;;;14.60;99.90;;;;;;5046627;28;20238;-81
2023/05/11 10:12:55;;;;;;;9.87;6.83;;;14.60;99.90;;;;;;5049626;28;20223;-82
2023/05/11 10:15:25;;;;;;;10.00;6.67;;;14.60;99.90;;;;;;5029272;28;20233;-82
2023/05/11 10:17:54;;;;;;;8.30;6.20;;;14.60;99.90;;;;;;5050029;28;20221;-82
2023/05/11 10:20:21;;;;;;;10.13;6.97;;;14.70;99.90;;;;;;5049743;28;20223;-83
2023/05/11 10:22:51;;;;;;;7.87;6.37;;;14.70;99.90;;;;;;5049606;28;20272;-82
2023/05/11 10:25:19;;;;;;;8.50;5.83;;;14.70;99.90;;;;;;5048248;28;20751;-83
2023/05/11 10:27:46;;;;;;;8.87;6.40;;;14.70;99.90;;;;;;5047878;28;20241;-82
2023/05/11 10:30:15;;;;;;;9.37;7.00;;;14.80;99.90;;;;;;5033192;28;20323;-83
2023/05/11 10:32:43;;;;;;;10.07;6.80;;;14.80;99.90;;;;;;5045812;28;20227;-83
2023/05/11 10:35:10;;;;;;;9.83;6.80;;;14.80;99.90;;;;;;5043269;28;20231;-83
2023/05/11 10:37:37;;;;;;;8.77;6.60;;;14.80;99.90;;;;;;5033959;28;20259;-82
2023/05/11 10:40:05;;;;;;;8.20;6.20;;;14.90;99.90;;;;;;5048221;28;20662;-82
2023/05/11 10:42:50;;;;;;;8.00;6.83;;;14.90;99.90;;;;;;5063788;28;20273;-82
2023/05/11 10:45:22;;;;;;;8.40;7.27;;;14.90;99.90;;;;;;5047825;28;20233;-82
2023/05/11 10:48:30;;;;;;;8.70;7.00;;;14.90;99.90;;;;;;5030796;28;20785;-82
2023/05/11 10:51:04;;;;;;;8.90;7.10;;;15.00;99.90;;;;;;5048657;28;20235;-83
2023/05/11 10:53:48;;;;;;;9.13;7.20;;;15.00;99.90;;;;;;5046912;28;20231;-82
2023/05/11 10:56:30;;;;;;;7.93;6.93;;;15.10;99.90;;;;;;5015140;28;20245;-83
2023/05/11 10:59:14;;;;;;;11.17;8.60;;;15.20;99.90;;;;;;5046690;28;20226;-82
2023/05/11 11:01:44;;;;;;;10.67;8.17;;;15.30;99.90;;;;;;5036859;28;20227;-81
2023/05/11 11:04:13;;;;;;;11.07;8.67;;;15.50;99.90;;;;;;5038222;28;20630;-82
2023/05/11 11:06:41;;;;;;;12.17;9.33;;;15.60;99.90;;;;;;5046481;28;20307;-82
2023/05/11 11:09:11;;;;;;;13.50;9.97;;;15.60;99.90;;;;;;5050456;28;20232;-82
2023/05/11 11:11:41;;;;;;;11.93;8.57;;;15.70;99.90;;;;;;5042945;28;20318;-82
2023/05/11 11:14:09;;;;;;;12.57;9.63;;;15.80;99.90;;;;;;5049208;28;20750;-82
2023/05/11 11:16:39;;;;;;;11.07;9.30;;;15.90;99.90;;;;;;5024204;28;20238;-84
2023/05/11 11:19:40;;;;;;;14.20;10.60;;;16.00;99.90;;;;;;5050194;28;20815;-83
2023/05/11 11:22:45;;;;;;;13.30;9.87;;;16.20;99.90;;;;;;5045880;28;20231;-83
2023/05/11 11:25:13;;;;;;;14.37;10.20;;;16.30;99.90;;;;;;5048225;28;20649;-82
2023/05/11 11:27:58;;;;;;;12.27;9.77;;;16.40;99.90;;;;;;5045672;28;20231;-83
2023/05/11 11:30:27;;;;;;;13.33;10.43;;;16.30;99.90;;;;;;5041926;28;20228;-84
2023/05/11 11:32:55;;;;;;;12.83;9.27;;;16.30;99.90;;;;;;5040270;28;20231;-84
2023/05/11 11:35:52;;;;;;;11.80;9.57;;;16.40;99.90;;;;;;5029843;28;20235;-85
2023/05/11 11:38:20;;;;;;;12.77;10.00;;;16.50;99.90;;;;;;4980541;28;20226;-83
2023/05/11 11:40:51;;;;;;;14.17;10.17;;;16.70;99.90;;;;;;5031685;28;20215;-84
2023/05/11 11:43:19;;;;;;;13.50;9.37;;;16.90;99.90;;;;;;5026560;28;20227;-84
2023/05/11 11:45:54;;;;;;;14.30;10.27;;;17.00;99.90;;;;;;5041065;28;20223;-84
2023/05/11 11:48:23;;;;;;;11.63;9.00;;;17.10;99.90;;;;;;5042861;28;20285;-84
2023/05/11 11:51:01;;;;;;;12.30;9.43;;;17.20;99.90;;;;;;5031320;28;20229;-83
2023/05/11 11:54:08;;;;;;;11.25;8.93;;;17.30;99.90;;;;;;5046300;28;20234;-85
2023/05/11 11:56:43;;;;;;;11.30;9.00;;;17.50;99.90;;;;;;5042971;28;20225;-84
2023/05/11 11:59:14;;;;;;;10.57;8.53;;;17.60;99.90;;;;;;5024687;28;20255;-84
2023/05/11 12:01:43;;;;;;;10.32;8.27;;;17.70;99.90;;;;;;5025944;28;20251;-83
2023/05/11 12:04:50;;;;;;;11.60;8.93;;;17.90;99.90;;;;;;5026140;28;20255;-82
2023/05/11 12:07:20;;;;;;;12.75;9.32;;;18.00;99.90;;;;;;5042883;28;20696;-82
2023/05/11 12:09:47;;;;;;;14.32;10.25;;;18.10;99.90;;;;;;5025077;28;20319;-82
2023/05/11 12:12:17;;;;;;;12.25;9.57;;;18.20;99.90;;;;;;5026530;28;20769;-82
2023/05/11 12:14:47;;;;;;;12.95;9.63;;;18.30;99.90;;;;;;5026455;28;20585;-82
2023/05/11 12:17:16;;;;;;;12.70;10.18;;;18.40;99.90;;;;;;5025177;28;20223;-82
2023/05/11 12:19:44;;;;;;;12.40;9.48;;;18.50;99.90;;;;;;5026921;28;20885;-82
2023/05/11 12:22:13;;;;;;;12.90;9.35;;;18.60;99.90;;;;;;5037867;28;20227;-82
2023/05/11 12:24:41;;;;;;;12.32;9.65;;;18.70;99.90;;;;;;5047065;28;20247;-82
2023/05/11 12:27:08;;;;;;;11.40;8.63;;;18.70;99.90;;;;;;5044601;28;20231;-81
2023/05/11 12:29:36;;;;;;;10.98;8.55;;;18.80;99.90;;;;;;5024720;28;20280;-82
2023/05/11 12:32:03;;;;;;;10.60;8.00;;;18.80;99.90;;;;;;5019960;28;20294;-82
2023/05/11 12:34:29;;;;;;;10.57;8.47;;;18.80;99.90;;;;;;5046465;28;20234;-82
2023/05/11 12:36:58;;;;;;;9.98;8.07;;;18.90;99.90;;;;;;5023030;28;20224;-82
2023/05/11 12:39:26;;;;;;;7.93;7.03;;;18.90;99.90;;;;;;5042502;28;20255;-81
2023/05/11 12:41:55;;;;;;;11.77;8.65;;;19.00;99.90;;;;;;5025054;28;20228;-82
2023/05/11 12:44:23;;;;;;;10.57;8.75;;;19.10;99.90;;;;;;5045500;28;20636;-82